Time;durP1;ratioP1;P1;durP2;ratioP2;P2;SDS_P1;SDS_P2;PMS_P1;PMS_P2;Temp;Humidity;BMP_temperature;BMP_pressure;BME280_temperature;BME280_humidity;BME280_pressure;Samples;Min_cycle;Max_cycle;Signal;HPM_P1;HPM_P2
2023/12/16 00:01:54;;;;;;;8.93;1.85;;;7.00;99.90;;;;;;5076025;28;20570;-18
2023/12/16 00:04:20;;;;;;;8.25;1.67;;;6.90;99.90;;;;;;5070624;28;20116;-19
2023/12/16 00:06:45;;;;;;;8.15;2.00;;;7.00;99.90;;;;;;5075912;28;20041;-18
2023/12/16 00:09:12;;;;;;;9.45;1.85;;;7.00;99.90;;;;;;5075919;28;20080;-18
2023/12/16 00:11:38;;;;;;;8.43;1.40;;;6.90;99.90;;;;;;5075647;28;20467;-19
2023/12/16 00:14:04;;;;;;;5.13;1.20;;;6.80;99.90;;;;;;5075328;28;20083;-18
2023/12/16 00:16:30;;;;;;;11.20;1.80;;;6.70;99.90;;;;;;5075760;28;20052;-18
2023/12/16 00:18:56;;;;;;;7.93;1.80;;;6.60;99.90;;;;;;5064810;28;20155;-18
2023/12/16 00:21:21;;;;;;;10.38;1.60;;;6.50;99.90;;;;;;5055494;28;20102;-18
2023/12/16 00:23:47;;;;;;;21.75;2.30;;;6.40;99.90;;;;;;5054989;28;20059;-18
2023/12/16 00:26:13;;;;;;;15.55;1.90;;;6.50;99.90;;;;;;5057519;28;20048;-19
2023/12/16 00:28:39;;;;;;;9.80;1.88;;;6.40;99.90;;;;;;5056617;28;20163;-18
2023/12/16 00:31:05;;;;;;;5.00;1.60;;;6.40;99.90;;;;;;5057899;28;20048;-18
2023/12/16 00:33:31;;;;;;;8.27;1.33;;;6.40;99.90;;;;;;5054556;28;20474;-19
2023/12/16 00:35:56;;;;;;;12.27;2.30;;;6.30;99.90;;;;;;5054293;28;20085;-19
2023/12/16 00:38:22;;;;;;;11.02;1.88;;;6.30;99.90;;;;;;5054380;28;20128;-19
2023/12/16 00:40:48;;;;;;;11.55;1.88;;;6.30;99.90;;;;;;5056051;28;20037;-19
2023/12/16 00:43:14;;;;;;;3.80;1.02;;;6.30;99.90;;;;;;5054176;28;20498;-19
2023/12/16 00:45:40;;;;;;;5.18;1.50;;;6.40;99.90;;;;;;5065726;28;20105;-18
2023/12/16 00:48:06;;;;;;;13.30;1.67;;;6.30;99.90;;;;;;5075174;28;20078;-18
2023/12/16 00:50:32;;;;;;;6.65;2.08;;;6.40;99.90;;;;;;5071746;28;20044;-18
2023/12/16 00:52:58;;;;;;;13.85;2.70;;;6.40;99.90;;;;;;5056170;28;20065;-19
2023/12/16 00:55:24;;;;;;;8.65;1.30;;;6.40;99.90;;;;;;5055649;28;20053;-19
2023/12/16 00:57:50;;;;;;;3.70;1.25;;;6.30;99.90;;;;;;5053811;28;20103;-19
2023/12/16 01:00:16;;;;;;;6.13;1.38;;;6.20;99.90;;;;;;5055685;28;20044;-19
2023/12/16 01:02:42;;;;;;;7.05;1.50;;;6.30;99.90;;;;;;5055153;28;20053;-18
2023/12/16 01:05:08;;;;;;;13.38;2.90;;;6.30;99.90;;;;;;5053933;28;20048;-19
2023/12/16 01:07:33;;;;;;;6.55;1.42;;;6.30;99.90;;;;;;5053567;28;20063;-19
2023/12/16 01:09:59;;;;;;;8.68;1.63;;;6.30;99.90;;;;;;5037436;28;20156;-19
2023/12/16 01:12:25;;;;;;;11.27;1.50;;;6.30;99.90;;;;;;5054891;28;20049;-19
2023/12/16 01:14:51;;;;;;;8.88;1.48;;;6.30;99.90;;;;;;5067870;28;20059;-19
2023/12/16 01:17:16;;;;;;;8.02;1.20;;;6.40;99.90;;;;;;5075146;28;20421;-19
2023/12/16 01:19:42;;;;;;;8.40;1.90;;;6.30;99.90;;;;;;5074246;28;20048;-19
2023/12/16 01:22:08;;;;;;;8.38;1.10;;;6.40;99.90;;;;;;5073313;28;20053;-19
2023/12/16 01:24:37;;;;;;;10.93;1.50;;;6.40;99.90;;;;;;5073238;28;20126;-19
2023/12/16 01:27:05;;;;;;;12.30;1.70;;;6.40;99.90;;;;;;5073646;28;20049;-19
2023/12/16 01:29:30;;;;;;;6.72;1.75;;;6.40;99.90;;;;;;5057193;28;20445;-19
2023/12/16 01:31:56;;;;;;;9.82;1.50;;;6.40;99.90;;;;;;5054881;28;20049;-19
2023/12/16 01:34:22;;;;;;;8.68;1.90;;;6.40;99.90;;;;;;5054306;28;20098;-19
2023/12/16 01:36:48;;;;;;;5.22;1.10;;;6.40;99.90;;;;;;5053532;28;20103;-19
2023/12/16 01:39:13;;;;;;;7.43;1.25;;;6.40;99.90;;;;;;5063001;28;20040;-18
2023/12/16 01:41:39;;;;;;;7.07;1.27;;;6.40;99.90;;;;;;5072948;28;20048;-19
2023/12/16 01:44:05;;;;;;;12.70;1.90;;;6.40;99.90;;;;;;5057328;28;20044;-19
2023/12/16 01:46:35;;;;;;;10.32;1.70;;;6.50;99.90;;;;;;5074887;28;20048;-19
2023/12/16 01:49:01;;;;;;;6.90;1.20;;;6.50;99.90;;;;;;5073329;28;20074;-19
2023/12/16 01:51:28;;;;;;;7.40;1.40;;;6.50;99.90;;;;;;5073985;28;20483;-19
2023/12/16 01:53:54;;;;;;;8.27;1.73;;;6.50;99.90;;;;;;5066190;28;20056;-19
2023/12/16 01:56:21;;;;;;;10.23;1.48;;;6.50;99.90;;;;;;5072352;28;20044;-19
2023/12/16 01:58:49;;;;;;;10.00;1.10;;;6.50;99.90;;;;;;5068546;28;20041;-18
2023/12/16 02:01:15;;;;;;;9.23;1.50;;;6.40;99.90;;;;;;5074412;28;20128;-19
2023/12/16 02:03:42;;;;;;;10.23;1.52;;;6.40;99.90;;;;;;5073802;28;20127;-19
2023/12/16 02:06:07;;;;;;;11.70;1.70;;;6.40;99.90;;;;;;5073853;28;20040;-19
2023/12/16 02:08:33;;;;;;;13.02;3.10;;;6.50;99.90;;;;;;5073474;28;20166;-19
2023/12/16 02:10:59;;;;;;;9.20;1.20;;;6.40;99.90;;;;;;5073756;28;20047;-19
2023/12/16 02:13:25;;;;;;;7.90;1.38;;;6.30;99.90;;;;;;5074293;28;20419;-19
2023/12/16 02:15:51;;;;;;;8.40;1.95;;;6.30;99.90;;;;;;5056681;28;20126;-19
2023/12/16 02:18:17;;;;;;;12.88;1.80;;;6.10;99.90;;;;;;5067802;28;20055;-19
2023/12/16 02:20:42;;;;;;;7.85;1.73;;;5.90;99.90;;;;;;5072481;28;20052;-19
2023/12/16 02:23:18;;;;;;;8.68;1.50;;;5.70;99.90;;;;;;5055799;28;20045;-19
2023/12/16 02:25:44;;;;;;;13.60;2.53;;;5.60;99.90;;;;;;5073505;28;20040;-19
2023/12/16 02:28:10;;;;;;;12.27;1.73;;;5.60;99.90;;;;;;5072598;28;20052;-19
2023/12/16 02:30:36;;;;;;;12.52;2.65;;;5.30;99.90;;;;;;5073554;28;20045;-19
2023/12/16 02:33:02;;;;;;;15.07;3.67;;;5.40;99.90;;;;;;5069079;28;20146;-19
2023/12/16 02:35:28;;;;;;;8.93;1.70;;;5.30;99.90;;;;;;5073590;28;20082;-19
2023/12/16 02:37:54;;;;;;;11.65;2.13;;;5.20;99.90;;;;;;5074969;28;20052;-19
2023/12/16 02:40:20;;;;;;;8.43;1.70;;;5.20;99.90;;;;;;5043361;28;20041;-19
2023/12/16 02:42:45;;;;;;;10.48;2.33;;;5.20;99.90;;;;;;5056640;28;20044;-19
2023/12/16 02:45:11;;;;;;;10.20;1.90;;;5.10;99.90;;;;;;5077251;28;20090;-20
2023/12/16 02:47:37;;;;;;;9.43;2.22;;;5.10;99.90;;;;;;5076555;28;20044;-19
2023/12/16 02:50:06;;;;;;;14.48;2.40;;;5.10;99.90;;;;;;5077388;28;20123;-19
2023/12/16 02:52:32;;;;;;;23.25;3.28;;;5.10;99.90;;;;;;5077665;28;20390;-20
2023/12/16 02:54:58;;;;;;;12.20;2.05;;;5.10;99.90;;;;;;5076144;28;20048;-20
2023/12/16 02:57:23;;;;;;;9.63;2.75;;;5.20;99.90;;;;;;5077273;28;20048;-20
2023/12/16 02:59:49;;;;;;;11.70;2.08;;;5.30;99.90;;;;;;5072819;28;20158;-20
2023/12/16 03:02:15;;;;;;;13.65;3.05;;;5.30;99.90;;;;;;5076035;28;20380;-20
2023/12/16 03:04:41;;;;;;;14.13;2.42;;;5.20;99.90;;;;;;5072969;28;20101;-20
2023/12/16 03:07:07;;;;;;;12.20;2.20;;;5.20;99.90;;;;;;5077060;28;20095;-20
2023/12/16 03:09:33;;;;;;;11.13;1.95;;;5.10;99.90;;;;;;5073546;28;20058;-19
2023/12/16 03:12:00;;;;;;;10.98;2.38;;;5.20;99.90;;;;;;5056968;28;20131;-20
2023/12/16 03:14:27;;;;;;;10.93;2.00;;;5.10;99.90;;;;;;5055947;28;20049;-20
2023/12/16 03:16:52;;;;;;;15.15;2.55;;;5.00;99.90;;;;;;5057207;28;20052;-19
2023/12/16 03:19:18;;;;;;;15.70;2.55;;;5.00;99.90;;;;;;5056668;28;20469;-19
2023/12/16 03:21:44;;;;;;;12.15;2.67;;;5.00;99.90;;;;;;5056833;28;20577;-20
2023/12/16 03:24:10;;;;;;;14.35;2.15;;;4.90;99.90;;;;;;5056205;28;20107;-19
2023/12/16 03:26:36;;;;;;;7.30;2.15;;;4.90;99.90;;;;;;5041398;28;20056;-20
2023/12/16 03:29:02;;;;;;;18.35;2.88;;;4.90;99.90;;;;;;5062193;28;20041;-19
2023/12/16 03:31:28;;;;;;;11.82;2.03;;;4.90;99.90;;;;;;5076595;28;20081;-20
2023/12/16 03:33:54;;;;;;;22.75;3.72;;;4.90;99.90;;;;;;5075890;28;20119;-20
2023/12/16 03:36:19;;;;;;;17.67;2.22;;;4.90;99.90;;;;;;5077346;28;20502;-20
2023/12/16 03:38:45;;;;;;;12.23;3.10;;;4.80;99.90;;;;;;5076154;28;20052;-20
2023/12/16 03:41:14;;;;;;;14.80;3.53;;;4.80;99.90;;;;;;5075976;28;20054;-20
2023/12/16 03:43:40;;;;;;;11.13;2.25;;;4.90;99.90;;;;;;5073330;28;20106;-20
2023/12/16 03:46:07;;;;;;;10.43;2.08;;;4.90;99.90;;;;;;5057153;28;20480;-20
2023/12/16 03:48:33;;;;;;;18.60;2.25;;;4.90;99.90;;;;;;5056066;28;20049;-20
2023/12/16 03:50:59;;;;;;;20.23;2.97;;;4.90;99.90;;;;;;5056375;28;20107;-20
2023/12/16 03:53:25;;;;;;;9.07;2.55;;;4.90;99.90;;;;;;5058915;28;20037;-19
2023/12/16 03:55:50;;;;;;;13.20;2.53;;;4.90;99.90;;;;;;5057004;28;20080;-20
2023/12/16 03:58:16;;;;;;;11.50;2.10;;;4.90;99.90;;;;;;5056134;28;20474;-20
2023/12/16 04:00:42;;;;;;;18.73;2.55;;;4.80;99.90;;;;;;5056019;28;20098;-19
2023/12/16 04:03:08;;;;;;;11.32;3.00;;;4.80;99.90;;;;;;5056012;28;20087;-20
2023/12/16 04:05:34;;;;;;;14.80;2.70;;;4.80;99.90;;;;;;5056243;28;20072;-20
2023/12/16 04:08:00;;;;;;;17.17;3.30;;;4.80;99.90;;;;;;5059264;28;20491;-19
2023/12/16 04:10:26;;;;;;;16.13;3.15;;;4.70;99.90;;;;;;5075789;28;20081;-20
2023/12/16 04:12:51;;;;;;;15.98;2.85;;;4.70;99.90;;;;;;5075856;28;20047;-20
2023/12/16 04:15:17;;;;;;;16.88;2.47;;;4.60;99.90;;;;;;5075416;28;20048;-19
2023/12/16 04:17:43;;;;;;;12.52;2.35;;;4.70;99.90;;;;;;5069466;28;20056;-20
2023/12/16 04:20:09;;;;;;;13.52;2.60;;;4.60;99.90;;;;;;5037599;28;20052;-20
2023/12/16 04:22:36;;;;;;;16.05;2.47;;;4.60;99.90;;;;;;5055719;28;20061;-20
2023/12/16 04:25:09;;;;;;;15.75;2.88;;;4.50;99.90;;;;;;5055573;28;20487;-20
2023/12/16 04:27:35;;;;;;;15.57;2.90;;;4.50;99.90;;;;;;5055744;28;20111;-20
2023/12/16 04:30:01;;;;;;;13.18;2.70;;;4.50;99.90;;;;;;5055592;28;20094;-20
2023/12/16 04:32:27;;;;;;;19.60;2.55;;;4.50;99.90;;;;;;5056973;28;20490;-19
2023/12/16 04:34:53;;;;;;;14.60;2.25;;;4.60;99.90;;;;;;5053685;28;20056;-20
2023/12/16 04:37:18;;;;;;;16.60;2.85;;;4.60;99.90;;;;;;5055971;28;20041;-20
2023/12/16 04:39:44;;;;;;;21.42;2.85;;;4.60;99.90;;;;;;5054859;28;20051;-20
2023/12/16 04:42:10;;;;;;;16.25;2.20;;;4.70;99.90;;;;;;5056979;28;20075;-20
2023/12/16 04:44:39;;;;;;;8.55;2.17;;;4.70;99.90;;;;;;5055135;28;20391;-19
2023/12/16 04:47:05;;;;;;;18.38;2.75;;;4.60;99.90;;;;;;5054052;28;20057;-20
2023/12/16 04:49:31;;;;;;;17.98;2.58;;;4.60;99.90;;;;;;5055159;28;20045;-20
2023/12/16 04:51:56;;;;;;;11.57;2.55;;;4.60;99.90;;;;;;5055169;28;20048;-20
2023/12/16 04:54:22;;;;;;;22.50;3.28;;;4.60;99.90;;;;;;5055117;28;20044;-20
2023/12/16 04:56:48;;;;;;;18.10;3.50;;;4.60;99.90;;;;;;5055304;28;20467;-20
2023/12/16 04:59:14;;;;;;;21.88;3.55;;;4.60;99.90;;;;;;5050678;28;20097;-20
2023/12/16 05:01:40;;;;;;;16.95;2.70;;;4.60;99.90;;;;;;5075077;28;20048;-20
2023/12/16 05:04:06;;;;;;;37.15;4.03;;;4.60;99.90;;;;;;5073866;28;20390;-20
2023/12/16 05:06:32;;;;;;;23.98;3.90;;;4.60;99.90;;;;;;5070953;28;20044;-19
2023/12/16 05:08:57;;;;;;;16.05;2.80;;;4.60;99.90;;;;;;5054809;28;20044;-20
2023/12/16 05:11:23;;;;;;;17.85;2.90;;;4.60;99.90;;;;;;5055293;28;20051;-20
2023/12/16 05:13:49;;;;;;;13.35;3.10;;;4.70;99.90;;;;;;5054307;28;20072;-20
2023/12/16 05:16:21;;;;;;;12.77;2.08;;;4.80;99.90;;;;;;5053657;28;20107;-20
2023/12/16 05:18:47;;;;;;;22.58;3.25;;;4.90;99.90;;;;;;5053254;28;20402;-20
2023/12/16 05:21:13;;;;;;;11.35;3.28;;;4.90;99.90;;;;;;5054471;28;20055;-19
2023/12/16 05:23:39;;;;;;;18.73;4.15;;;5.00;99.90;;;;;;5069232;28;20490;-20
2023/12/16 05:26:04;;;;;;;20.35;4.38;;;5.00;99.90;;;;;;5074355;28;20084;-19
2023/12/16 05:28:33;;;;;;;16.60;3.10;;;5.10;99.90;;;;;;5074943;28;20363;-20
2023/12/16 05:30:59;;;;;;;24.45;3.67;;;5.10;99.90;;;;;;5070209;28;20041;-19
2023/12/16 05:33:25;;;;;;;26.23;4.22;;;5.20;99.90;;;;;;5073132;28;20131;-20
2023/12/16 05:35:51;;;;;;;15.40;3.78;;;5.30;99.90;;;;;;5075031;28;20441;-20
2023/12/16 05:38:17;;;;;;;22.98;3.42;;;5.40;99.90;;;;;;5073002;28;20044;-20
2023/12/16 05:40:43;;;;;;;14.50;2.88;;;5.50;99.90;;;;;;5072912;28;20086;-20
2023/12/16 05:43:08;;;;;;;22.65;3.60;;;5.50;99.90;;;;;;5058649;28;20053;-20
2023/12/16 05:45:34;;;;;;;23.08;4.53;;;5.50;99.90;;;;;;5052943;28;20053;-20
2023/12/16 05:48:00;;;;;;;20.88;3.83;;;5.60;99.90;;;;;;5054107;28;20053;-20
2023/12/16 05:50:26;;;;;;;21.25;4.22;;;5.70;99.90;;;;;;5056841;28;20506;-19
2023/12/16 05:52:52;;;;;;;21.55;4.30;;;5.80;99.90;;;;;;5063147;28;20167;-19
2023/12/16 05:55:17;;;;;;;23.15;4.75;;;5.80;99.90;;;;;;5053946;28;20507;-20
2023/12/16 05:57:43;;;;;;;20.83;3.85;;;5.90;99.90;;;;;;5053911;28;20051;-20
2023/12/16 06:00:09;;;;;;;24.52;4.40;;;5.90;99.90;;;;;;5052897;28;20467;-19
2023/12/16 06:02:36;;;;;;;27.65;5.75;;;5.90;99.90;;;;;;5053860;28;20411;-19
2023/12/16 06:05:02;;;;;;;14.25;4.00;;;6.00;99.90;;;;;;5053840;28;20505;-20
2023/12/16 06:07:28;;;;;;;28.23;5.03;;;6.10;99.90;;;;;;5053725;28;20118;-19
2023/12/16 06:09:54;;;;;;;32.92;5.45;;;6.10;99.90;;;;;;5070065;28;20482;-20
2023/12/16 06:12:20;;;;;;;28.30;5.70;;;6.20;99.90;;;;;;5072947;28;20051;-20
2023/12/16 06:14:46;;;;;;;30.02;6.43;;;6.20;99.90;;;;;;5073709;28;20048;-20
2023/12/16 06:17:12;;;;;;;25.15;5.07;;;6.20;99.90;;;;;;5068278;28;20048;-20
2023/12/16 06:19:38;;;;;;;17.98;4.53;;;6.20;99.90;;;;;;5073525;28;20044;-20
2023/12/16 06:22:04;;;;;;;26.27;5.25;;;6.20;99.90;;;;;;5073664;28;20105;-20
2023/12/16 06:24:30;;;;;;;35.22;6.32;;;6.20;99.90;;;;;;5074255;28;20041;-20
2023/12/16 06:26:56;;;;;;;25.77;4.55;;;6.20;99.90;;;;;;5073539;28;20128;-20
2023/12/16 06:29:21;;;;;;;24.77;4.88;;;6.20;99.90;;;;;;5072475;28;20159;-20
2023/12/16 06:31:47;;;;;;;29.02;6.22;;;6.20;99.90;;;;;;5068597;28;20492;-19
2023/12/16 06:34:16;;;;;;;35.10;6.78;;;6.30;99.90;;;;;;5074366;28;20055;-19
2023/12/16 06:36:42;;;;;;;33.88;6.18;;;6.20;99.90;;;;;;5052011;28;20055;-19
2023/12/16 06:39:08;;;;;;;34.33;7.30;;;6.30;99.90;;;;;;5056536;28;20060;-20
2023/12/16 06:41:33;;;;;;;41.83;8.43;;;6.30;99.90;;;;;;5069323;28;20055;-19
2023/12/16 06:44:00;;;;;;;32.85;7.07;;;6.20;99.90;;;;;;5055622;28;20044;-19
2023/12/16 06:46:26;;;;;;;28.05;6.00;;;6.20;99.90;;;;;;5073953;28;20051;-19
2023/12/16 06:48:51;;;;;;;30.67;8.32;;;6.30;99.90;;;;;;5073384;28;20041;-19
2023/12/16 06:51:18;;;;;;;41.40;8.43;;;6.50;99.90;;;;;;5073357;28;20036;-19
2023/12/16 06:53:43;;;;;;;40.78;6.70;;;6.50;99.90;;;;;;5073323;28;20048;-19
2023/12/16 06:56:09;;;;;;;30.60;7.30;;;6.50;99.90;;;;;;5069016;28;20043;-20
2023/12/16 06:58:37;;;;;;;33.83;6.63;;;6.70;99.90;;;;;;5073548;28;20052;-19
2023/12/16 07:01:03;;;;;;;46.15;8.65;;;6.30;99.90;;;;;;5073490;28;20044;-19
2023/12/16 07:03:29;;;;;;;51.50;8.65;;;6.80;99.90;;;;;;5073213;28;20047;-20
2023/12/16 07:05:55;;;;;;;40.65;8.02;;;6.40;99.90;;;;;;5066135;28;20057;-19
2023/12/16 07:08:21;;;;;;;31.80;6.63;;;6.70;99.90;;;;;;5052198;28;20479;-20
2023/12/16 07:10:47;;;;;;;50.60;8.30;;;6.40;99.90;;;;;;5053104;28;20110;-21
2023/12/16 07:13:12;;;;;;;49.47;9.07;;;6.60;99.90;;;;;;5053104;28;20134;-20
2023/12/16 07:15:38;;;;;;;37.90;7.10;;;6.90;99.90;;;;;;5053401;28;20057;-20
2023/12/16 07:18:04;;;;;;;26.85;6.25;;;6.90;99.90;;;;;;5053092;28;20053;-20
2023/12/16 07:20:30;;;;;;;26.63;6.75;;;6.50;99.90;;;;;;5052851;28;20518;-20
2023/12/16 07:22:56;;;;;;;38.92;7.00;;;7.00;99.90;;;;;;5072609;28;20049;-20
2023/12/16 07:25:22;;;;;;;42.80;7.53;;;6.80;99.90;;;;;;5074995;28;20063;-20
2023/12/16 07:27:48;;;;;;;28.92;5.97;;;6.60;99.90;;;;;;5075445;28;20044;-20
2023/12/16 07:30:16;;;;;;;26.25;7.45;;;6.50;99.90;;;;;;5066390;28;20033;-20
2023/12/16 07:32:42;;;;;;;50.30;10.00;;;6.90;99.90;;;;;;5056607;28;20045;-21
2023/12/16 07:35:12;;;;;;;41.80;9.40;;;6.60;99.90;;;;;;5056534;28;20055;-19
2023/12/16 07:37:42;;;;;;;46.58;10.30;;;6.50;99.90;;;;;;5058937;28;20552;-20
2023/12/16 07:40:09;;;;;;;42.55;8.98;;;7.30;99.90;;;;;;5072301;28;20044;-20
2023/12/16 07:42:39;;;;;;;50.70;9.68;;;6.90;99.90;;;;;;5042515;28;20505;-20
2023/12/16 07:45:06;;;;;;;39.28;8.27;;;6.60;99.90;;;;;;5056086;28;20529;-20
2023/12/16 07:47:34;;;;;;;59.17;11.68;;;7.40;99.90;;;;;;5056370;28;20096;-20
2023/12/16 07:50:00;;;;;;;52.38;10.00;;;6.70;99.90;;;;;;5056774;28;20041;-20
2023/12/16 07:52:27;;;;;;;40.42;9.30;;;6.90;99.90;;;;;;5054921;28;20040;-19
2023/12/16 07:54:52;;;;;;;52.03;9.82;;;6.50;99.90;;;;;;5058358;28;20641;-19
2023/12/16 07:57:18;;;;;;;62.72;11.60;;;6.60;99.90;;;;;;5074953;28;20139;-19
2023/12/16 07:59:44;;;;;;;48.88;12.10;;;6.50;99.90;;;;;;5058061;28;20052;-19
2023/12/16 08:02:10;;;;;;;57.70;10.68;;;7.50;99.90;;;;;;5075896;28;20478;-20
2023/12/16 08:04:38;;;;;;;53.85;11.38;;;6.50;99.90;;;;;;5075977;28;20090;-19
2023/12/16 08:07:04;;;;;;;42.17;10.45;;;6.50;99.90;;;;;;5076766;28;20422;-19
2023/12/16 08:09:31;;;;;;;49.40;10.50;;;6.60;99.90;;;;;;5073827;28;20041;-19
2023/12/16 08:11:58;;;;;;;46.28;9.93;;;7.30;99.90;;;;;;5072962;28;20055;-19
2023/12/16 08:14:25;;;;;;;65.38;12.15;;;6.60;99.90;;;;;;5074880;28;20048;-19
2023/12/16 08:16:53;;;;;;;45.53;10.00;;;7.20;99.90;;;;;;5071660;28;20128;-19
2023/12/16 08:19:19;;;;;;;45.95;10.85;;;7.10;99.90;;;;;;5074242;28;20060;-20
2023/12/16 08:21:45;;;;;;;57.25;12.63;;;7.40;99.90;;;;;;5075633;28;20052;-21
2023/12/16 08:24:11;;;;;;;54.15;12.68;;;6.60;99.90;;;;;;5073553;28;20098;-21
2023/12/16 08:26:37;;;;;;;40.88;11.18;;;6.60;99.90;;;;;;5056454;28;20045;-20
2023/12/16 08:29:03;;;;;;;42.13;10.35;;;6.70;99.90;;;;;;5056169;28;20052;-20
2023/12/16 08:31:29;;;;;;;49.33;12.00;;;7.30;99.90;;;;;;5055108;28;20040;-20
2023/12/16 08:33:54;;;;;;;46.90;9.40;;;7.30;99.90;;;;;;5055426;28;20048;-20
2023/12/16 08:36:20;;;;;;;59.50;11.23;;;6.90;99.90;;;;;;5055305;28;20049;-20
2023/12/16 08:38:46;;;;;;;63.95;11.63;;;7.40;99.90;;;;;;5055591;28;20123;-20
2023/12/16 08:41:12;;;;;;;59.92;12.60;;;6.70;99.90;;;;;;5069017;28;20044;-20
2023/12/16 08:43:38;;;;;;;54.95;11.73;;;7.70;99.90;;;;;;5075220;28;20044;-21
2023/12/16 08:46:05;;;;;;;53.67;10.70;;;7.80;99.90;;;;;;5058240;28;20041;-20
2023/12/16 08:48:31;;;;;;;46.60;9.63;;;7.30;99.90;;;;;;5073950;28;20123;-19
2023/12/16 08:50:57;;;;;;;48.65;10.15;;;7.80;99.90;;;;;;5075038;28;20055;-19
2023/12/16 08:53:24;;;;;;;35.17;8.38;;;7.30;99.90;;;;;;5075098;28;20041;-19
2023/12/16 08:55:50;;;;;;;52.42;12.23;;;7.80;99.90;;;;;;5071028;28;20053;-21
2023/12/16 08:58:17;;;;;;;59.88;12.15;;;7.30;99.90;;;;;;5075387;28;20044;-20
2023/12/16 09:00:43;;;;;;;30.65;7.72;;;7.70;99.90;;;;;;5075436;28;20044;-20
2023/12/16 09:03:09;;;;;;;49.90;10.32;;;7.80;99.90;;;;;;5070683;28;20044;-20
2023/12/16 09:05:36;;;;;;;48.45;11.05;;;7.20;99.90;;;;;;5073588;28;20052;-19
2023/12/16 09:08:03;;;;;;;45.60;9.75;;;7.70;99.90;;;;;;5073506;28;20098;-19
2023/12/16 09:10:29;;;;;;;54.90;10.02;;;7.00;99.90;;;;;;5075276;28;20368;-19
2023/12/16 09:12:54;;;;;;;57.17;10.93;;;7.60;99.90;;;;;;5040248;28;20570;-19
2023/12/16 09:15:20;;;;;;;42.65;10.07;;;7.30;99.90;;;;;;5075060;28;20143;-19
2023/12/16 09:17:49;;;;;;;35.00;9.88;;;7.30;99.90;;;;;;5068996;28;20044;-19
2023/12/16 09:20:15;;;;;;;52.92;10.68;;;8.00;99.90;;;;;;5054173;28;20104;-19
2023/12/16 09:22:41;;;;;;;48.58;10.57;;;7.00;99.90;;;;;;5053807;28;20049;-20
2023/12/16 09:25:08;;;;;;;49.60;8.88;;;8.00;99.90;;;;;;5062103;28;20501;-20
2023/12/16 09:27:35;;;;;;;66.43;11.63;;;8.00;99.90;;;;;;5071164;28;20116;-20
2023/12/16 09:30:01;;;;;;;37.85;9.93;;;7.10;99.90;;;;;;5074928;28;20041;-20
2023/12/16 09:32:26;;;;;;;32.65;9.85;;;7.50;99.90;;;;;;5072994;28;20082;-19
2023/12/16 09:34:52;;;;;;;47.33;9.68;;;7.80;99.90;;;;;;5074380;28;20051;-20
2023/12/16 09:37:18;;;;;;;50.55;11.23;;;7.90;99.90;;;;;;5073056;28;20040;-20
2023/12/16 09:39:44;;;;;;;46.80;10.35;;;8.10;99.90;;;;;;5072945;28;20072;-19
2023/12/16 09:42:12;;;;;;;45.78;9.30;;;8.10;99.90;;;;;;5070492;28;20040;-19
2023/12/16 09:44:38;;;;;;;37.90;9.73;;;7.40;99.90;;;;;;5054173;28;20048;-19
2023/12/16 09:47:05;;;;;;;51.45;11.35;;;7.80;99.90;;;;;;5053293;28;20475;-19
2023/12/16 09:49:31;;;;;;;55.10;10.80;;;8.10;99.90;;;;;;5054995;28;20045;-19
2023/12/16 09:51:57;;;;;;;49.47;11.45;;;8.00;99.90;;;;;;5054333;28;20479;-19
2023/12/16 09:54:23;;;;;;;46.65;9.48;;;8.20;99.90;;;;;;5053974;28;20049;-19
2023/12/16 09:56:49;;;;;;;46.90;9.23;;;8.00;99.90;;;;;;5054834;28;20044;-19
2023/12/16 09:59:16;;;;;;;39.85;9.88;;;8.20;99.90;;;;;;5073790;28;20501;-19
2023/12/16 10:01:55;;;;;;;54.55;11.32;;;7.40;99.90;;;;;;5072447;28;20557;-20
2023/12/16 10:04:22;;;;;;;42.08;9.38;;;7.30;99.90;;;;;;5074202;28;20106;-19
2023/12/16 10:06:48;;;;;;;43.17;9.85;;;8.20;99.90;;;;;;5073850;28;20048;-19
2023/12/16 10:09:14;;;;;;;29.10;10.57;;;8.00;99.90;;;;;;5073467;28;20388;-19
2023/12/16 10:11:41;;;;;;;46.22;10.52;;;7.60;99.90;;;;;;5068592;28;20056;-19
2023/12/16 10:14:07;;;;;;;38.63;9.68;;;7.30;99.90;;;;;;5056192;28;20047;-20
2023/12/16 10:16:33;;;;;;;37.42;9.63;;;7.20;99.90;;;;;;5073763;28;20123;-20
2023/12/16 10:18:59;;;;;;;38.80;10.15;;;7.20;99.90;;;;;;5074138;28;20056;-20
2023/12/16 10:21:30;;;;;;;34.95;10.32;;;8.30;99.90;;;;;;5053374;28;20515;-20
2023/12/16 10:23:58;;;;;;;36.85;9.63;;;7.90;99.90;;;;;;5054434;28;20044;-19
2023/12/16 10:26:24;;;;;;;36.33;9.40;;;7.30;99.90;;;;;;5053578;28;20199;-19
2023/12/16 10:28:52;;;;;;;45.28;10.80;;;8.20;99.90;;;;;;5053465;28;20056;-19
2023/12/16 10:31:21;;;;;;;36.33;9.93;;;8.40;99.90;;;;;;5054286;28;20120;-20
2023/12/16 10:33:51;;;;;;;34.20;9.90;;;7.60;99.90;;;;;;5054170;28;20937;-20
2023/12/16 10:36:17;;;;;;;39.78;10.10;;;8.40;99.90;;;;;;5073130;28;20075;-20
2023/12/16 10:38:43;;;;;;;40.63;11.23;;;8.40;99.90;;;;;;5056085;28;20505;-19
2023/12/16 10:41:09;;;;;;;39.28;13.45;;;8.30;99.90;;;;;;5069912;28;20033;-20
2023/12/16 10:43:35;;;;;;;34.85;9.68;;;7.30;99.90;;;;;;5053207;28;20102;-19
2023/12/16 10:46:04;;;;;;;35.85;10.32;;;8.10;99.90;;;;;;5053310;28;20045;-19
2023/12/16 10:48:33;;;;;;;31.05;9.73;;;8.20;99.90;;;;;;5070139;28;20048;-20
2023/12/16 10:51:05;;;;;;;29.05;9.35;;;8.40;99.90;;;;;;5073293;28;20046;-19
2023/12/16 10:53:46;;;;;;;37.28;11.52;;;8.30;99.90;;;;;;5073323;28;20052;-19
2023/12/16 10:56:35;;;;;;;22.05;8.35;;;8.50;99.90;;;;;;5070181;28;20052;-19
2023/12/16 10:59:04;;;;;;;35.60;12.73;;;8.50;99.90;;;;;;5054133;28;20056;-19
2023/12/16 11:01:34;;;;;;;31.38;9.93;;;7.50;99.90;;;;;;5057167;28;20047;-20
2023/12/16 11:04:17;;;;;;;35.10;10.20;;;7.50;99.90;;;;;;5057127;28;20049;-20
2023/12/16 11:06:51;;;;;;;24.42;10.00;;;8.60;99.90;;;;;;5056567;28;20053;-19
2023/12/16 11:09:18;;;;;;;21.38;7.75;;;7.60;99.90;;;;;;5057432;28;20041;-19
2023/12/16 11:11:45;;;;;;;21.73;8.43;;;7.50;99.90;;;;;;5072185;28;20041;-19
2023/12/16 11:14:12;;;;;;;18.48;7.35;;;8.20;99.90;;;;;;5076097;28;20044;-19
2023/12/16 11:17:13;;;;;;;29.08;9.65;;;7.90;99.90;;;;;;5076743;28;20110;-20
2023/12/16 11:20:07;;;;;;;18.92;7.35;;;8.60;99.90;;;;;;5059443;28;20067;-19
2023/12/16 11:22:45;;;;;;;18.38;8.70;;;7.60;99.90;;;;;;5039837;28;20513;-19
2023/12/16 11:25:21;;;;;;;19.70;7.55;;;7.60;99.90;;;;;;5056262;28;20053;-19
2023/12/16 11:27:48;;;;;;;16.15;6.90;;;8.30;99.90;;;;;;5056789;28;20048;-19
2023/12/16 11:30:15;;;;;;;21.05;7.43;;;8.50;99.90;;;;;;5055530;28;20111;-19
2023/12/16 11:32:44;;;;;;;15.68;7.22;;;8.60;99.90;;;;;;5038407;28;20091;-18
2023/12/16 11:35:10;;;;;;;18.48;8.32;;;8.30;99.90;;;;;;5056622;28;20041;-19
2023/12/16 11:37:36;;;;;;;16.70;7.03;;;8.60;99.90;;;;;;5056587;28;20053;-19
2023/12/16 11:40:06;;;;;;;21.15;7.80;;;8.70;99.90;;;;;;5056462;28;20483;-19
2023/12/16 11:43:02;;;;;;;21.13;8.32;;;7.70;99.90;;;;;;5056521;28;20056;-18
2023/12/16 11:45:48;;;;;;;15.27;7.90;;;7.70;99.90;;;;;;5055838;28;20136;-18
2023/12/16 11:48:15;;;;;;;15.75;7.85;;;8.70;99.90;;;;;;5064946;28;20456;-19
2023/12/16 11:50:44;;;;;;;18.95;7.53;;;8.70;99.90;;;;;;5076852;28;20102;-18
2023/12/16 11:53:11;;;;;;;21.05;7.50;;;8.70;99.90;;;;;;5075596;28;20091;-18
2023/12/16 11:55:38;;;;;;;18.98;8.82;;;7.70;99.90;;;;;;5069244;28;20053;-18
2023/12/16 11:58:05;;;;;;;21.73;9.75;;;7.70;99.90;;;;;;5074695;28;20049;-19
2023/12/16 12:00:31;;;;;;;15.65;6.07;;;7.70;99.90;;;;;;5074915;28;20105;-19
2023/12/16 12:03:00;;;;;;;20.73;9.10;;;8.80;99.90;;;;;;5076192;28;20491;-18
2023/12/16 12:05:27;;;;;;;8.05;5.03;;;8.40;99.90;;;;;;5075060;28;20467;-19
2023/12/16 12:07:53;;;;;;;21.30;8.88;;;7.60;99.90;;;;;;5059172;28;20088;-18
2023/12/16 12:10:19;;;;;;;19.10;8.90;;;8.60;99.90;;;;;;5073315;28;20146;-18
2023/12/16 12:12:44;;;;;;;16.77;6.97;;;8.80;99.90;;;;;;5057517;28;20143;-19
2023/12/16 12:15:10;;;;;;;18.88;7.70;;;7.50;99.90;;;;;;5055915;28;20053;-18
2023/12/16 12:17:36;;;;;;;17.58;7.82;;;8.00;99.90;;;;;;5056500;28;20445;-19
2023/12/16 12:20:04;;;;;;;15.80;7.13;;;7.70;99.90;;;;;;5055441;28;20398;-19
2023/12/16 12:22:31;;;;;;;24.50;9.98;;;7.50;99.90;;;;;;5054765;28;20471;-20
2023/12/16 12:24:57;;;;;;;16.85;7.00;;;7.80;99.90;;;;;;5054545;28;20071;-19
2023/12/16 12:27:23;;;;;;;11.07;6.13;;;7.80;99.90;;;;;;5072506;28;20458;-19
2023/12/16 12:30:00;;;;;;;19.20;7.68;;;8.70;99.90;;;;;;5075602;28;20044;-19
2023/12/16 12:32:28;;;;;;;17.20;9.05;;;8.80;99.90;;;;;;5074270;28;20043;-19
2023/12/16 12:35:02;;;;;;;31.88;10.38;;;7.70;99.90;;;;;;5074539;28;20137;-18
2023/12/16 12:37:38;;;;;;;19.70;7.70;;;8.30;99.90;;;;;;5074277;28;20044;-18
2023/12/16 12:40:05;;;;;;;15.05;7.15;;;8.10;99.90;;;;;;5073443;28;20052;-18
2023/12/16 12:43:01;;;;;;;27.48;9.65;;;8.70;99.90;;;;;;5071456;28;20045;-18
2023/12/16 12:45:29;;;;;;;12.68;5.60;;;8.20;99.90;;;;;;5074141;28;20037;-18